Time;durP1;ratioP1;P1;durP2;ratioP2;P2;SDS_P1;SDS_P2;PMS_P1;PMS_P2;Temp;Humidity;BMP_temperature;BMP_pressure;BME280_temperature;BME280_humidity;BME280_pressure;Samples;Min_cycle;Max_cycle;Signal;HPM_P1;HPM_P2
2024/04/14 00:02:13;;;;;;;17.90;9.80;;;;;;;;;;756011;183;918474;-69
2024/04/14 00:04:38;;;;;;;14.43;10.80;;;;;;;;;;779435;178;906541;-68
2024/04/14 00:07:04;;;;;;;12.37;8.60;;;;;;;;;;772937;179;814147;-67
2024/04/14 00:09:30;;;;;;;14.35;10.02;;;;;;;;;;754775;183;830755;-68
2024/04/14 00:11:56;;;;;;;13.60;8.50;;;;;;;;;;744596;185;707363;-68
2024/04/14 00:14:24;;;;;;;12.27;9.00;;;;;;;;;;745515;184;812117;-67
2024/04/14 00:16:50;;;;;;;11.30;8.47;;;;;;;;;;746822;184;820678;-67
2024/04/14 00:19:20;;;;;;;13.30;9.60;;;;;;;;;;742008;186;761593;-69
2024/04/14 00:21:42;;;;;;;13.67;9.77;;;;;;;;;;768297;181;683775;-67
2024/04/14 00:24:08;;;;;;;11.50;8.88;;;;;;;;;;772224;177;704755;-68
2024/04/14 00:26:34;;;;;;;11.90;8.97;;;;;;;;;;772322;179;690719;-67
2024/04/14 00:28:59;;;;;;;14.03;8.30;;;;;;;;;;777381;179;634746;-68
2024/04/14 00:31:25;;;;;;;12.17;8.87;;;;;;;;;;775351;176;870967;-68
2024/04/14 00:33:51;;;;;;;16.83;8.87;;;;;;;;;;773563;177;730670;-69
2024/04/14 00:36:17;;;;;;;13.70;8.57;;;;;;;;;;779758;178;797709;-68
2024/04/14 00:38:43;;;;;;;12.60;9.97;;;;;;;;;;773021;177;714010;-67
2024/04/14 00:41:09;;;;;;;13.03;9.00;;;;;;;;;;752679;183;918666;-68
2024/04/14 00:43:34;;;;;;;12.00;7.90;;;;;;;;;;759156;182;816730;-68
2024/04/14 00:46:00;;;;;;;12.65;9.68;;;;;;;;;;743473;185;940389;-67
2024/04/14 00:48:26;;;;;;;19.10;9.60;;;;;;;;;;775638;179;813495;-68
2024/04/14 00:50:52;;;;;;;11.90;8.50;;;;;;;;;;773494;178;714404;-67
2024/04/14 00:53:18;;;;;;;12.97;9.77;;;;;;;;;;768699;180;733443;-67
2024/04/14 00:55:44;;;;;;;27.23;10.60;;;;;;;;;;773741;178;767998;-68
2024/04/14 00:58:09;;;;;;;15.80;11.80;;;;;;;;;;774853;178;930740;-69
2024/04/14 01:00:35;;;;;;;25.07;11.77;;;;;;;;;;780911;179;726140;-67
2024/04/14 01:03:01;;;;;;;23.80;14.00;;;;;;;;;;773281;179;814456;-69
2024/04/14 01:05:27;;;;;;;22.80;12.17;;;;;;;;;;773783;178;817651;-68
2024/04/14 01:07:53;;;;;;;17.47;12.40;;;;;;;;;;774762;179;818168;-68
2024/04/14 01:10:19;;;;;;;21.90;12.23;;;;;;;;;;759706;183;699900;-69
2024/04/14 01:12:45;;;;;;;19.23;11.03;;;;;;;;;;744958;187;801300;-68
2024/04/14 01:15:10;;;;;;;18.13;11.77;;;;;;;;;;773966;179;765870;-69
2024/04/14 01:17:36;;;;;;;24.02;11.23;;;;;;;;;;773989;179;809480;-69
2024/04/14 01:20:03;;;;;;;18.27;10.17;;;;;;;;;;777399;179;682387;-70
2024/04/14 01:22:28;;;;;;;17.60;10.53;;;;;;;;;;774162;178;710783;-69
2024/04/14 01:24:55;;;;;;;20.20;10.50;;;;;;;;;;765510;182;655758;-69
2024/04/14 01:27:21;;;;;;;16.93;10.00;;;;;;;;;;768138;179;833476;-67
2024/04/14 01:29:46;;;;;;;16.77;9.70;;;;;;;;;;752305;183;822879;-70
2024/04/14 01:32:12;;;;;;;16.30;9.60;;;;;;;;;;775393;178;756264;-69
2024/04/14 01:34:38;;;;;;;15.30;10.57;;;;;;;;;;778879;177;698202;-70
2024/04/14 01:37:04;;;;;;;15.57;9.70;;;;;;;;;;772599;177;767752;-68
2024/04/14 01:39:30;;;;;;;12.70;9.10;;;;;;;;;;777828;179;753652;-68
2024/04/14 01:41:56;;;;;;;14.27;10.27;;;;;;;;;;774174;179;860814;-67
2024/04/14 01:44:21;;;;;;;12.77;9.50;;;;;;;;;;768324;178;916672;-68
2024/04/14 01:46:48;;;;;;;12.20;9.07;;;;;;;;;;775372;177;917058;-69
2024/04/14 01:49:14;;;;;;;13.60;8.43;;;;;;;;;;766623;181;623919;-68
2024/04/14 01:51:40;;;;;;;12.30;8.73;;;;;;;;;;760153;178;812310;-68
2024/04/14 01:54:05;;;;;;;11.37;8.90;;;;;;;;;;776023;178;751216;-69
2024/04/14 01:56:31;;;;;;;11.40;9.30;;;;;;;;;;781864;179;623741;-70
2024/04/14 01:58:57;;;;;;;13.37;8.80;;;;;;;;;;774841;179;713261;-69
2024/04/14 02:01:23;;;;;;;15.43;8.40;;;;;;;;;;772738;180;815443;-68
2024/04/14 02:03:49;;;;;;;14.83;9.27;;;;;;;;;;781105;177;805505;-68
2024/04/14 02:06:15;;;;;;;11.50;8.30;;;;;;;;;;775997;177;804494;-69
2024/04/14 02:08:40;;;;;;;10.88;8.43;;;;;;;;;;775415;179;813016;-67
2024/04/14 02:11:06;;;;;;;10.13;7.90;;;;;;;;;;777384;177;917588;-67
2024/04/14 02:13:32;;;;;;;12.63;8.40;;;;;;;;;;774638;177;916311;-68
2024/04/14 02:16:00;;;;;;;13.82;10.32;;;;;;;;;;775168;177;685084;-68
2024/04/14 02:18:24;;;;;;;9.47;7.40;;;;;;;;;;772412;179;852994;-68
2024/04/14 02:20:50;;;;;;;14.93;9.10;;;;;;;;;;772958;177;814897;-68
2024/04/14 02:23:15;;;;;;;11.67;8.80;;;;;;;;;;771377;177;713321;-68
2024/04/14 02:25:41;;;;;;;12.33;9.10;;;;;;;;;;772768;177;808995;-70
2024/04/14 02:28:07;;;;;;;14.95;9.93;;;;;;;;;;779320;180;714397;-69
2024/04/14 02:30:33;;;;;;;13.97;9.30;;;;;;;;;;772135;181;921004;-68
2024/04/14 02:32:59;;;;;;;17.70;10.07;;;;;;;;;;774104;178;764271;-69
2024/04/14 02:35:25;;;;;;;15.97;10.47;;;;;;;;;;779086;178;898324;-68
2024/04/14 02:37:50;;;;;;;18.43;10.67;;;;;;;;;;772259;178;792635;-69
2024/04/14 02:40:18;;;;;;;12.23;8.70;;;;;;;;;;774554;179;775958;-68
2024/04/14 02:42:42;;;;;;;14.03;9.07;;;;;;;;;;775987;178;917843;-69
2024/04/14 02:45:09;;;;;;;12.03;9.77;;;;;;;;;;768988;178;931123;-69
2024/04/14 02:47:34;;;;;;;26.00;12.23;;;;;;;;;;775660;178;816671;-68
2024/04/14 02:50:00;;;;;;;14.70;9.93;;;;;;;;;;774015;177;812694;-69
2024/04/14 02:52:25;;;;;;;20.23;10.40;;;;;;;;;;778401;178;814670;-68
2024/04/14 02:54:51;;;;;;;14.53;9.00;;;;;;;;;;767695;178;714985;-68
2024/04/14 02:57:17;;;;;;;16.30;10.50;;;;;;;;;;774145;179;916495;-70
2024/04/14 02:59:43;;;;;;;15.17;8.50;;;;;;;;;;776888;178;704762;-68
2024/04/14 03:02:09;;;;;;;12.10;9.93;;;;;;;;;;772633;180;700275;-69
2024/04/14 03:04:35;;;;;;;12.07;9.18;;;;;;;;;;773051;179;677449;-69
2024/04/14 03:07:01;;;;;;;11.33;9.07;;;;;;;;;;778599;178;1127713;-68
2024/04/14 03:09:26;;;;;;;11.03;8.63;;;;;;;;;;777207;179;656654;-70
2024/04/14 03:11:52;;;;;;;10.27;8.60;;;;;;;;;;776734;177;817234;-68
2024/04/14 03:14:18;;;;;;;11.30;9.65;;;;;;;;;;779961;179;650827;-70
2024/04/14 03:16:44;;;;;;;16.43;10.50;;;;;;;;;;775655;177;753814;-68
2024/04/14 03:19:10;;;;;;;13.23;11.00;;;;;;;;;;778051;177;667227;-68
2024/04/14 03:21:36;;;;;;;18.43;10.80;;;;;;;;;;774711;179;750091;-70
2024/04/14 03:24:01;;;;;;;12.40;10.00;;;;;;;;;;776748;178;919406;-69
2024/04/14 03:26:27;;;;;;;14.10;9.87;;;;;;;;;;773178;180;917635;-70
2024/04/14 03:28:53;;;;;;;16.73;10.50;;;;;;;;;;772602;177;920331;-69
2024/04/14 03:31:19;;;;;;;12.43;8.27;;;;;;;;;;777933;179;914451;-68
2024/04/14 03:33:45;;;;;;;11.20;8.30;;;;;;;;;;770813;180;818156;-69
2024/04/14 03:36:11;;;;;;;12.10;8.82;;;;;;;;;;770795;180;1020042;-68
2024/04/14 03:38:37;;;;;;;13.30;8.20;;;;;;;;;;778998;180;906904;-68
2024/04/14 03:41:02;;;;;;;10.00;7.47;;;;;;;;;;776661;180;718916;-68
2024/04/14 03:43:28;;;;;;;15.23;9.83;;;;;;;;;;773446;178;815329;-68
2024/04/14 03:45:54;;;;;;;14.80;10.03;;;;;;;;;;774194;177;713257;-71
2024/04/14 03:48:20;;;;;;;12.80;9.30;;;;;;;;;;766198;181;830678;-69
2024/04/14 03:50:46;;;;;;;14.87;9.83;;;;;;;;;;765571;178;815000;-69
2024/04/14 03:53:12;;;;;;;16.60;9.33;;;;;;;;;;775141;178;698785;-69
2024/04/14 03:55:37;;;;;;;11.25;9.68;;;;;;;;;;775625;178;729164;-68
2024/04/14 03:58:03;;;;;;;10.63;9.53;;;;;;;;;;771001;178;715758;-69
2024/04/14 04:00:29;;;;;;;12.30;10.37;;;;;;;;;;767536;179;811148;-69
2024/04/14 04:02:55;;;;;;;16.17;9.07;;;;;;;;;;778128;179;805668;-69
2024/04/14 04:05:21;;;;;;;10.07;8.23;;;;;;;;;;758910;181;711696;-70
2024/04/14 04:07:47;;;;;;;14.33;9.87;;;;;;;;;;757099;183;713006;-69
2024/04/14 04:10:13;;;;;;;14.07;9.70;;;;;;;;;;775690;179;759182;-69
2024/04/14 04:12:38;;;;;;;11.07;9.90;;;;;;;;;;775586;177;726190;-68
2024/04/14 04:15:04;;;;;;;11.95;9.98;;;;;;;;;;773737;179;811890;-68
2024/04/14 04:17:30;;;;;;;16.80;10.73;;;;;;;;;;757213;183;800678;-70
2024/04/14 04:19:56;;;;;;;10.60;9.10;;;;;;;;;;759330;181;784576;-69
2024/04/14 04:22:22;;;;;;;10.70;8.47;;;;;;;;;;750418;185;713064;-69
2024/04/14 04:24:48;;;;;;;15.30;10.10;;;;;;;;;;756498;183;813950;-70
2024/04/14 04:27:14;;;;;;;12.57;9.90;;;;;;;;;;746630;185;814705;-69
2024/04/14 04:29:39;;;;;;;13.17;9.90;;;;;;;;;;745082;186;714927;-68
2024/04/14 04:32:06;;;;;;;10.65;9.18;;;;;;;;;;770603;176;778004;-69
2024/04/14 04:34:31;;;;;;;11.07;8.90;;;;;;;;;;778525;178;917715;-68
2024/04/14 04:36:57;;;;;;;12.60;9.70;;;;;;;;;;773885;178;916078;-69
2024/04/14 04:39:23;;;;;;;13.67;9.20;;;;;;;;;;773716;179;793918;-69
2024/04/14 04:41:49;;;;;;;10.60;8.80;;;;;;;;;;777994;177;800198;-70
2024/04/14 04:44:15;;;;;;;15.77;9.68;;;;;;;;;;776140;179;813301;-70
2024/04/14 04:46:40;;;;;;;16.20;9.30;;;;;;;;;;771199;179;918291;-68
2024/04/14 04:49:06;;;;;;;11.83;9.30;;;;;;;;;;773832;179;801649;-68
2024/04/14 04:51:32;;;;;;;12.67;8.90;;;;;;;;;;776536;178;764367;-70
2024/04/14 04:53:58;;;;;;;16.53;10.70;;;;;;;;;;755438;183;710791;-70
2024/04/14 04:56:24;;;;;;;24.23;11.73;;;;;;;;;;758870;183;816044;-69
2024/04/14 04:58:50;;;;;;;15.57;10.53;;;;;;;;;;780017;177;766518;-70
2024/04/14 05:01:16;;;;;;;15.83;10.70;;;;;;;;;;772569;178;786941;-69
2024/04/14 05:03:42;;;;;;;27.57;10.40;;;;;;;;;;773691;179;713199;-69
2024/04/14 05:06:08;;;;;;;12.37;9.77;;;;;;;;;;776177;179;811182;-68
2024/04/14 05:08:34;;;;;;;13.30;9.33;;;;;;;;;;771035;177;921403;-69
2024/04/14 05:10:59;;;;;;;12.27;9.17;;;;;;;;;;771542;179;818540;-70
2024/04/14 05:13:25;;;;;;;19.30;9.47;;;;;;;;;;774124;179;790207;-71
2024/04/14 05:15:51;;;;;;;13.90;10.10;;;;;;;;;;766696;182;685664;-69
2024/04/14 05:18:17;;;;;;;11.60;9.20;;;;;;;;;;754100;183;730121;-69
2024/04/14 05:20:43;;;;;;;10.43;7.60;;;;;;;;;;752717;181;812507;-70
2024/04/14 05:23:09;;;;;;;11.05;7.97;;;;;;;;;;779178;179;815064;-69
2024/04/14 05:25:35;;;;;;;11.07;8.27;;;;;;;;;;773137;179;918038;-68
2024/04/14 05:28:00;;;;;;;10.60;9.47;;;;;;;;;;773614;177;719923;-69
2024/04/14 05:30:26;;;;;;;11.68;8.65;;;;;;;;;;780502;178;704996;-69
2024/04/14 05:32:52;;;;;;;10.07;8.23;;;;;;;;;;775146;177;814944;-69
2024/04/14 05:35:18;;;;;;;11.63;9.65;;;;;;;;;;757951;181;704154;-69
2024/04/14 05:37:44;;;;;;;12.90;8.90;;;;;;;;;;776619;178;728426;-69
2024/04/14 05:40:10;;;;;;;12.27;9.20;;;;;;;;;;771572;178;815921;-69
2024/04/14 05:42:36;;;;;;;16.23;10.87;;;;;;;;;;771809;178;874641;-69
2024/04/14 05:45:01;;;;;;;13.40;10.63;;;;;;;;;;774082;177;772830;-71
2024/04/14 05:47:27;;;;;;;9.57;8.30;;;;;;;;;;767664;181;615841;-70
2024/04/14 05:49:53;;;;;;;9.93;8.90;;;;;;;;;;755496;183;758955;-69
2024/04/14 05:52:19;;;;;;;13.57;11.73;;;;;;;;;;766852;179;1287775;-70
2024/04/14 05:54:45;;;;;;;13.10;9.07;;;;;;;;;;777165;178;864957;-69
2024/04/14 05:57:11;;;;;;;14.90;9.53;;;;;;;;;;754813;183;921887;-69
2024/04/14 05:59:36;;;;;;;10.37;9.07;;;;;;;;;;772398;178;878608;-69
2024/04/14 06:02:02;;;;;;;12.00;9.73;;;;;;;;;;774210;177;799458;-69
2024/04/14 06:04:28;;;;;;;11.93;8.53;;;;;;;;;;769101;179;824881;-69
2024/04/14 06:06:54;;;;;;;15.67;10.87;;;;;;;;;;774365;178;918335;-69
2024/04/14 06:09:23;;;;;;;12.40;9.10;;;;;;;;;;774816;180;814452;-70
2024/04/14 06:11:46;;;;;;;13.73;9.90;;;;;;;;;;775628;179;908702;-69
2024/04/14 06:14:12;;;;;;;11.80;10.50;;;;;;;;;;773910;179;889975;-68
2024/04/14 06:16:37;;;;;;;15.30;9.20;;;;;;;;;;769047;179;814653;-70
2024/04/14 06:19:03;;;;;;;11.03;9.37;;;;;;;;;;770791;181;779279;-70
2024/04/14 06:21:29;;;;;;;14.10;10.10;;;;;;;;;;774400;179;756187;-69
2024/04/14 06:23:55;;;;;;;12.20;9.90;;;;;;;;;;770325;178;795547;-74
2024/04/14 06:26:21;;;;;;;13.53;10.20;;;;;;;;;;779099;179;710192;-74
2024/04/14 06:28:47;;;;;;;15.03;8.37;;;;;;;;;;756492;183;711903;-74
2024/04/14 06:31:12;;;;;;;13.97;9.10;;;;;;;;;;749562;184;674886;-74
2024/04/14 06:33:38;;;;;;;9.60;8.33;;;;;;;;;;749545;185;711782;-74
2024/04/14 06:36:04;;;;;;;10.63;9.03;;;;;;;;;;747768;185;717816;-74
2024/04/14 06:38:30;;;;;;;13.40;8.97;;;;;;;;;;753130;183;712115;-74
2024/04/14 06:40:57;;;;;;;12.23;9.20;;;;;;;;;;761845;181;623605;-74
2024/04/14 06:43:23;;;;;;;12.50;8.83;;;;;;;;;;757272;184;818820;-74
2024/04/14 06:45:52;;;;;;;8.67;7.33;;;;;;;;;;756555;182;915682;-74
2024/04/14 06:48:16;;;;;;;9.10;6.10;;;;;;;;;;769699;178;886418;-75
2024/04/14 06:50:40;;;;;;;11.03;7.30;;;;;;;;;;780318;178;715268;-74
2024/04/14 06:53:07;;;;;;;8.40;5.47;;;;;;;;;;773869;178;917418;-74
2024/04/14 06:55:32;;;;;;;7.27;5.67;;;;;;;;;;756157;183;733743;-74
2024/04/14 06:57:58;;;;;;;10.20;5.73;;;;;;;;;;774202;178;715249;-74
2024/04/14 07:00:23;;;;;;;9.33;6.20;;;;;;;;;;760154;183;653962;-74
2024/04/14 07:02:49;;;;;;;8.33;5.07;;;;;;;;;;746201;185;711770;-74
2024/04/14 07:05:15;;;;;;;9.60;5.10;;;;;;;;;;756793;183;776515;-68
2024/04/14 07:07:41;;;;;;;8.27;5.60;;;;;;;;;;756459;184;713486;-68
2024/04/14 07:10:07;;;;;;;8.60;5.73;;;;;;;;;;754958;183;895831;-70
2024/04/14 07:12:35;;;;;;;7.90;5.37;;;;;;;;;;778748;179;820223;-70
2024/04/14 07:15:01;;;;;;;7.75;5.90;;;;;;;;;;761982;181;918328;-70
2024/04/14 07:17:27;;;;;;;7.60;5.10;;;;;;;;;;773371;179;814380;-69
2024/04/14 07:19:52;;;;;;;7.03;5.27;;;;;;;;;;776330;179;624737;-70
2024/04/14 07:22:18;;;;;;;15.87;5.50;;;;;;;;;;781494;179;629603;-68
2024/04/14 07:24:44;;;;;;;11.07;5.63;;;;;;;;;;755618;183;874167;-66
2024/04/14 07:27:10;;;;;;;5.83;5.23;;;;;;;;;;774535;179;815759;-69
2024/04/14 07:29:36;;;;;;;6.70;5.43;;;;;;;;;;777998;179;722021;-69
2024/04/14 07:32:02;;;;;;;7.77;5.90;;;;;;;;;;776497;179;687059;-69
2024/04/14 07:34:27;;;;;;;7.17;5.53;;;;;;;;;;770120;177;813270;-70
2024/04/14 07:36:53;;;;;;;8.93;5.63;;;;;;;;;;777352;179;791192;-69
2024/04/14 07:39:19;;;;;;;6.97;5.53;;;;;;;;;;773259;177;755410;-68
2024/04/14 07:41:45;;;;;;;8.17;5.37;;;;;;;;;;772141;177;819908;-68
2024/04/14 07:44:11;;;;;;;12.00;5.50;;;;;;;;;;769157;178;807902;-70
2024/04/14 07:46:37;;;;;;;9.27;5.37;;;;;;;;;;778948;179;818911;-66
2024/04/14 07:49:03;;;;;;;6.10;4.90;;;;;;;;;;773429;178;700021;-68
2024/04/14 07:51:28;;;;;;;9.40;5.93;;;;;;;;;;774979;178;725578;-70
2024/04/14 07:53:54;;;;;;;11.80;6.30;;;;;;;;;;776815;178;696946;-69
2024/04/14 07:56:20;;;;;;;6.53;5.30;;;;;;;;;;754928;183;768380;-70
2024/04/14 07:58:46;;;;;;;7.20;5.43;;;;;;;;;;755753;183;881659;-70
2024/04/14 08:01:12;;;;;;;10.23;6.10;;;;;;;;;;754880;185;714675;-69
2024/04/14 08:03:38;;;;;;;8.20;5.30;;;;;;;;;;775232;178;617815;-70
2024/04/14 08:06:03;;;;;;;8.53;5.77;;;;;;;;;;775170;179;788742;-69
2024/04/14 08:08:29;;;;;;;9.57;7.30;;;;;;;;;;779212;178;729713;-69
2024/04/14 08:10:55;;;;;;;7.50;5.23;;;;;;;;;;758134;183;918540;-69
2024/04/14 08:13:21;;;;;;;9.03;6.83;;;;;;;;;;761052;182;685271;-70
2024/04/14 08:15:47;;;;;;;7.13;5.33;;;;;;;;;;776364;177;643109;-70
2024/04/14 08:18:13;;;;;;;6.53;5.33;;;;;;;;;;779822;179;617141;-69
2024/04/14 08:20:40;;;;;;;7.90;5.90;;;;;;;;;;757207;181;626043;-73
2024/04/14 08:23:04;;;;;;;8.73;6.20;;;;;;;;;;748486;183;714685;-74
2024/04/14 08:25:30;;;;;;;8.30;6.07;;;;;;;;;;758812;183;711802;-72
2024/04/14 08:27:56;;;;;;;10.07;6.80;;;;;;;;;;750181;184;1735419;-74
2024/04/14 08:30:22;;;;;;;8.33;6.10;;;;;;;;;;748481;184;919242;-73
2024/04/14 08:32:48;;;;;;;9.93;6.40;;;;;;;;;;773671;179;710944;-73
2024/04/14 08:35:14;;;;;;;7.87;5.07;;;;;;;;;;755536;182;634152;-73
2024/04/14 08:37:39;;;;;;;8.00;5.43;;;;;;;;;;759095;184;626955;-73
2024/04/14 08:40:06;;;;;;;7.17;5.13;;;;;;;;;;781455;178;613274;-73
2024/04/14 08:42:31;;;;;;;7.80;5.13;;;;;;;;;;769687;179;917492;-73
2024/04/14 08:44:57;;;;;;;12.37;5.00;;;;;;;;;;773648;178;918136;-72
2024/04/14 08:47:23;;;;;;;11.83;4.87;;;;;;;;;;766106;179;909830;-73
2024/04/14 08:49:49;;;;;;;5.63;4.57;;;;;;;;;;778496;179;739709;-73
2024/04/14 08:52:15;;;;;;;7.57;4.67;;;;;;;;;;773758;179;685426;-73
2024/04/14 08:54:41;;;;;;;8.17;5.53;;;;;;;;;;772778;178;691093;-73
2024/04/14 08:57:06;;;;;;;8.37;4.93;;;;;;;;;;776279;179;706996;-73
2024/04/14 08:59:32;;;;;;;7.43;4.87;;;;;;;;;;772022;179;776630;-73
2024/04/14 09:01:58;;;;;;;8.47;4.90;;;;;;;;;;773191;179;918268;-73
2024/04/14 09:04:24;;;;;;;7.30;5.67;;;;;;;;;;779781;178;843849;-73
2024/04/14 09:06:50;;;;;;;5.63;5.07;;;;;;;;;;756391;183;816959;-72
2024/04/14 09:09:16;;;;;;;11.33;5.47;;;;;;;;;;759402;183;855475;-72
2024/04/14 09:11:47;;;;;;;10.40;5.37;;;;;;;;;;777784;178;755290;-72
2024/04/14 09:14:13;;;;;;;5.70;4.67;;;;;;;;;;774425;180;817651;-72
2024/04/14 09:16:39;;;;;;;9.25;4.60;;;;;;;;;;776631;178;814563;-73
2024/04/14 09:19:05;;;;;;;6.33;4.67;;;;;;;;;;776001;178;762678;-72
2024/04/14 09:21:30;;;;;;;7.73;4.00;;;;;;;;;;777740;178;813263;-72
2024/04/14 09:23:56;;;;;;;12.73;5.53;;;;;;;;;;773108;179;698995;-72
2024/04/14 09:26:22;;;;;;;7.07;5.30;;;;;;;;;;770622;179;798567;-73
2024/04/14 09:28:48;;;;;;;7.63;4.50;;;;;;;;;;769808;179;1650577;-73
2024/04/14 09:31:14;;;;;;;8.53;5.17;;;;;;;;;;756488;183;716421;-73
2024/04/14 09:33:40;;;;;;;5.93;4.70;;;;;;;;;;777632;178;739191;-72
2024/04/14 09:36:06;;;;;;;8.03;4.27;;;;;;;;;;775486;179;627856;-73
2024/04/14 09:38:31;;;;;;;7.00;4.20;;;;;;;;;;776483;180;656001;-72
2024/04/14 09:40:57;;;;;;;11.43;5.20;;;;;;;;;;772114;179;917095;-71
2024/04/14 09:43:23;;;;;;;6.03;3.57;;;;;;;;;;773415;179;773208;-73
2024/04/14 09:45:49;;;;;;;7.80;4.33;;;;;;;;;;774899;179;619446;-72
2024/04/14 09:48:15;;;;;;;5.00;3.60;;;;;;;;;;755623;183;911631;-72
2024/04/14 09:50:42;;;;;;;6.50;3.87;;;;;;;;;;771566;178;800859;-72
2024/04/14 09:53:06;;;;;;;6.93;4.13;;;;;;;;;;779426;179;729319;-72
2024/04/14 09:55:32;;;;;;;8.57;4.30;;;;;;;;;;755533;183;655290;-73
2024/04/14 09:57:58;;;;;;;8.10;4.40;;;;;;;;;;777299;179;704053;-72
2024/04/14 10:00:24;;;;;;;11.20;6.13;;;;;;;;;;774119;179;712077;-72
2024/04/14 10:02:53;;;;;;;7.70;4.43;;;;;;;;;;769810;179;645366;-72
2024/04/14 10:05:19;;;;;;;11.07;5.13;;;;;;;;;;769519;177;719437;-72
2024/04/14 10:07:46;;;;;;;10.27;5.13;;;;;;;;;;773926;179;817230;-73
2024/04/14 10:10:11;;;;;;;7.70;5.40;;;;;;;;;;777031;177;815079;-73
2024/04/14 10:12:37;;;;;;;8.10;4.73;;;;;;;;;;774729;179;811176;-73
2024/04/14 10:15:03;;;;;;;5.40;4.57;;;;;;;;;;758214;182;727319;-72
2024/04/14 10:17:29;;;;;;;14.03;5.97;;;;;;;;;;775971;177;915892;-72
2024/04/14 10:19:54;;;;;;;21.07;8.37;;;;;;;;;;775878;178;643198;-73
2024/04/14 10:22:21;;;;;;;25.20;9.13;;;;;;;;;;757672;183;811430;-72
2024/04/14 10:24:46;;;;;;;9.47;6.40;;;;;;;;;;776978;178;920774;-72
2024/04/14 10:27:12;;;;;;;10.40;5.27;;;;;;;;;;768949;179;916410;-72
2024/04/14 10:29:39;;;;;;;8.90;5.80;;;;;;;;;;769077;180;916255;-73
2024/04/14 10:32:04;;;;;;;5.35;4.40;;;;;;;;;;777115;178;916818;-72
2024/04/14 10:34:30;;;;;;;10.30;3.97;;;;;;;;;;764988;180;912021;-72
2024/04/14 10:36:57;;;;;;;6.03;4.40;;;;;;;;;;769240;179;915944;-72
2024/04/14 10:39:22;;;;;;;7.73;4.97;;;;;;;;;;772252;179;819488;-72
2024/04/14 10:41:48;;;;;;;7.60;5.30;;;;;;;;;;777976;176;923951;-72
2024/04/14 10:44:13;;;;;;;8.33;4.80;;;;;;;;;;754904;183;824130;-72
2024/04/14 10:46:39;;;;;;;12.35;6.43;;;;;;;;;;769651;178;2049585;-72
2024/04/14 10:49:05;;;;;;;10.40;5.53;;;;;;;;;;773977;179;916319;-73
2024/04/14 10:51:32;;;;;;;13.43;4.87;;;;;;;;;;754195;183;915757;-73
2024/04/14 10:53:57;;;;;;;5.80;4.20;;;;;;;;;;775077;179;818997;-72
2024/04/14 10:56:23;;;;;;;14.00;6.80;;;;;;;;;;776825;180;820245;-72
2024/04/14 10:58:48;;;;;;;14.33;5.70;;;;;;;;;;772350;178;918112;-73
2024/04/14 11:01:15;;;;;;;8.00;3.57;;;;;;;;;;770273;177;817861;-72
2024/04/14 11:03:40;;;;;;;23.87;7.73;;;;;;;;;;772822;179;716786;-72
2024/04/14 11:06:06;;;;;;;21.77;8.23;;;;;;;;;;764662;182;920819;-72
2024/04/14 11:08:33;;;;;;;6.13;4.10;;;;;;;;;;761571;183;617193;-73
2024/04/14 11:10:58;;;;;;;7.50;3.70;;;;;;;;;;749802;181;1600535;-73
2024/04/14 11:13:23;;;;;;;6.30;3.77;;;;;;;;;;754191;184;816343;-71
2024/04/14 11:15:49;;;;;;;5.17;3.70;;;;;;;;;;769736;178;931927;-72
2024/04/14 11:18:15;;;;;;;4.47;3.20;;;;;;;;;;774873;177;913856;-72
2024/04/14 11:20:49;;;;;;;6.67;3.70;;;;;;;;;;780182;177;613873;-73
2024/04/14 11:23:16;;;;;;;4.93;3.50;;;;;;;;;;774911;180;880014;-72
2024/04/14 11:25:41;;;;;;;7.53;3.50;;;;;;;;;;774101;179;916555;-72
2024/04/14 11:28:07;;;;;;;5.50;3.30;;;;;;;;;;776805;180;715771;-73
2024/04/14 11:30:33;;;;;;;5.50;3.80;;;;;;;;;;780474;180;617836;-73
2024/04/14 11:33:01;;;;;;;5.37;3.30;;;;;;;;;;777659;178;724909;-72
2024/04/14 11:35:25;;;;;;;9.27;4.10;;;;;;;;;;773756;177;797533;-72
2024/04/14 11:37:53;;;;;;;8.20;3.40;;;;;;;;;;780024;177;919571;-73
2024/04/14 11:40:18;;;;;;;6.20;5.13;;;;;;;;;;772862;179;918370;-72
2024/04/14 11:42:42;;;;;;;8.37;3.90;;;;;;;;;;773060;177;914553;-73
2024/04/14 11:45:08;;;;;;;6.50;3.77;;;;;;;;;;777179;180;771819;-73
2024/04/14 11:47:34;;;;;;;4.70;3.40;;;;;;;;;;773082;180;773149;-73
2024/04/14 11:50:00;;;;;;;4.20;3.13;;;;;;;;;;771615;177;918359;-72
2024/04/14 11:52:27;;;;;;;5.00;3.80;;;;;;;;;;776381;179;864305;-72
2024/04/14 11:54:52;;;;;;;6.70;3.75;;;;;;;;;;774574;178;817174;-72
2024/04/14 11:57:17;;;;;;;4.47;3.50;;;;;;;;;;772692;178;816651;-72
2024/04/14 11:59:43;;;;;;;5.87;3.60;;;;;;;;;;772721;179;918127;-73
2024/04/14 12:02:09;;;;;;;7.10;4.23;;;;;;;;;;777790;180;918066;-73
2024/04/14 12:04:35;;;;;;;5.03;3.70;;;;;;;;;;767592;180;917415;-72
2024/04/14 12:07:01;;;;;;;6.10;4.00;;;;;;;;;;776029;177;722332;-72
2024/04/14 12:09:27;;;;;;;8.43;3.50;;;;;;;;;;781573;181;625666;-73
2024/04/14 12:11:53;;;;;;;5.57;3.93;;;;;;;;;;771826;180;819500;-73
2024/04/14 12:14:18;;;;;;;6.17;3.97;;;;;;;;;;773479;180;917953;-73
2024/04/14 12:16:45;;;;;;;5.10;3.27;;;;;;;;;;777636;181;915683;-73
2024/04/14 12:19:10;;;;;;;6.50;4.03;;;;;;;;;;771560;181;616433;-73
2024/04/14 12:21:36;;;;;;;4.47;3.97;;;;;;;;;;773171;180;714143;-73
2024/04/14 12:24:02;;;;;;;6.30;3.80;;;;;;;;;;773545;179;814190;-73
2024/04/14 12:26:29;;;;;;;10.80;4.13;;;;;;;;;;770535;177;919187;-73
2024/04/14 12:28:53;;;;;;;5.70;3.10;;;;;;;;;;771218;180;910982;-72
2024/04/14 12:31:19;;;;;;;8.25;4.18;;;;;;;;;;770532;181;920620;-73
2024/04/14 12:33:45;;;;;;;4.60;3.13;;;;;;;;;;766237;181;706268;-73
2024/04/14 12:36:11;;;;;;;4.90;3.37;;;;;;;;;;771104;178;852317;-73
2024/04/14 12:38:37;;;;;;;6.53;3.85;;;;;;;;;;774621;179;910329;-72
2024/04/14 12:41:03;;;;;;;5.10;3.10;;;;;;;;;;776052;180;919265;-73
2024/04/14 12:43:28;;;;;;;7.80;3.60;;;;;;;;;;774494;178;919005;-73
2024/04/14 12:45:54;;;;;;;4.67;4.00;;;;;;;;;;775650;177;772510;-72
2024/04/14 12:48:20;;;;;;;5.70;3.43;;;;;;;;;;777484;178;692384;-72
2024/04/14 12:50:46;;;;;;;4.90;3.30;;;;;;;;;;773084;180;635883;-72
2024/04/14 12:53:14;;;;;;;6.93;3.73;;;;;;;;;;778553;179;616783;-73
2024/04/14 12:55:38;;;;;;;6.37;3.23;;;;;;;;;;772265;180;819008;-72
2024/04/14 12:58:03;;;;;;;6.50;4.10;;;;;;;;;;777716;180;918762;-73
2024/04/14 13:00:29;;;;;;;9.70;4.00;;;;;;;;;;772480;179;921190;-72
2024/04/14 13:02:55;;;;;;;5.80;3.20;;;;;;;;;;775020;180;908165;-72
2024/04/14 13:05:21;;;;;;;6.03;3.67;;;;;;;;;;775118;178;822779;-72
2024/04/14 13:07:47;;;;;;;5.43;3.90;;;;;;;;;;767633;180;924880;-72
2024/04/14 13:10:13;;;;;;;8.47;4.07;;;;;;;;;;770507;180;917174;-68
2024/04/14 13:12:39;;;;;;;6.53;3.70;;;;;;;;;;776681;180;896850;-67
2024/04/14 13:15:04;;;;;;;5.30;3.20;;;;;;;;;;774607;179;828145;-68
2024/04/14 13:17:31;;;;;;;6.47;3.33;;;;;;;;;;773263;180;894040;-67
2024/04/14 13:19:56;;;;;;;5.60;3.17;;;;;;;;;;777180;180;814205;-67
2024/04/14 13:22:22;;;;;;;4.67;2.50;;;;;;;;;;774099;177;813466;-68
2024/04/14 13:24:48;;;;;;;5.13;3.10;;;;;;;;;;772863;179;815860;-68
2024/04/14 13:27:14;;;;;;;4.40;2.93;;;;;;;;;;775101;180;714359;-67
2024/04/14 13:29:40;;;;;;;8.40;2.87;;;;;;;;;;767845;181;840795;-68
2024/04/14 13:32:05;;;;;;;3.50;2.37;;;;;;;;;;754011;181;747397;-69
2024/04/14 13:34:31;;;;;;;5.17;2.97;;;;;;;;;;772058;179;816388;-70
2024/04/14 13:36:57;;;;;;;8.30;3.43;;;;;;;;;;781775;178;809655;-69
2024/04/14 13:39:23;;;;;;;6.80;3.00;;;;;;;;;;774078;179;919751;-68
2024/04/14 13:41:49;;;;;;;3.70;2.60;;;;;;;;;;770244;179;917863;-67
2024/04/14 13:44:15;;;;;;;5.13;3.03;;;;;;;;;;778776;179;919293;-67
2024/04/14 13:46:41;;;;;;;4.73;2.70;;;;;;;;;;751682;183;917184;-68
2024/04/14 13:49:06;;;;;;;8.00;3.03;;;;;;;;;;770046;179;817009;-72
2024/04/14 13:51:32;;;;;;;8.83;3.47;;;;;;;;;;779624;179;860647;-73
2024/04/14 13:53:58;;;;;;;5.43;3.03;;;;;;;;;;776080;177;714938;-72
2024/04/14 13:56:24;;;;;;;6.53;3.30;;;;;;;;;;775918;178;813046;-72
2024/04/14 13:58:50;;;;;;;6.53;3.20;;;;;;;;;;771172;179;918640;-72
2024/04/14 14:01:16;;;;;;;4.90;2.87;;;;;;;;;;775065;180;918421;-73
2024/04/14 14:03:42;;;;;;;8.20;3.10;;;;;;;;;;769164;179;913499;-73
2024/04/14 14:06:07;;;;;;;6.87;3.37;;;;;;;;;;770107;179;815680;-70
2024/04/14 14:08:33;;;;;;;4.07;2.93;;;;;;;;;;777193;178;842038;-69
2024/04/14 14:10:59;;;;;;;7.50;3.37;;;;;;;;;;775097;178;710790;-70
2024/04/14 14:13:25;;;;;;;4.35;2.72;;;;;;;;;;754029;183;713776;-70